EDFM/MHG METAR and TAF weather

Enter ICAO airport designator
Station Type Date Time Source
EDFM METAR 2022/08/16 18:20 UTC NOAA

EDFM 161820Z VRB03KT CAVOK 28/13 Q1009


Station Type Date Time Source
EDFM Decoded METAR 2022/08/16 18:20 UTC NOAA

Baden Wurttemberg, Neuostheim, Germany (EDFM) 49-28-21N 008-30-56E
Aug 16, 2022 - 02:20 PM EDT / 2022.08.16 1820 UTC
Wind: Variable at 3 MPH (3 KT):0
Visibility: greater than 7 mile(s):0
Temperature: 82 F (28 C)
Dew Point: 55 F (13 C)
Relative Humidity: 39%
Pressure (altimeter): 29.80 in. Hg (1009 hPa)
ob: EDFM 161820Z VRB03KT CAVOK 28/13 Q1009
cycle: 18

Station Type Date Time Source
EDFM TAF 2012/03/06 06:30 UTC NOAA

TAF EDFM 060519Z 0606/0621 15004KT 9999 FEW040

Example: see airport list